Terminal Aerodrome Forecast
Issued by NWS Mt. Holly, NJ

Home | Current Version | Previous Version | Text Only | Print | Product List | Glossary On
Versions: 1 2 3 4 5 6 7 8 9 10 11 12 13 14 15 16 17 18 19 20 21 22 23 24
000
FTUS41 KPHI 280540
TAFRDG
TAF
KRDG 280540Z 2806/2906 00000KT 5SM BR VCSH BKN050
     FM280900 00000KT 2SM BR VCSH OVC003
     FM281400 03003KT 4SM BR VCSH OVC006
     FM282000 02003KT 2SM RA BR OVC015
     FM290000 36003KT 2SM BR VCSH OVC015
     FM290300 36006KT P6SM BKN025=

USA.gov is the U.S. government's official web portal to all federal, state and local government web resources and services.